Time;durP1;ratioP1;P1;durP2;ratioP2;P2;SDS_P1;SDS_P2;PMS_P1;PMS_P2;Temp;Humidity;BMP_temperature;BMP_pressure;BME280_temperature;BME280_humidity;BME280_pressure;Samples;Min_cycle;Max_cycle;Signal;HPM_P1;HPM_P2
2022/08/31 00:04:01;;;;;;;0.35;0.35;;;19.20;99.90;;;;;;4904918;29;20031;-79
2022/08/31 00:06:29;;;;;;;0.10;0.10;;;18.80;99.90;;;;;;4904806;29;20315;-83
2022/08/31 00:08:55;;;;;;;0.03;0.03;;;18.80;99.90;;;;;;4887692;29;20024;-87
2022/08/31 00:11:27;;;;;;;0.10;0.10;;;18.90;99.90;;;;;;4904343;29;20127;-82
2022/08/31 00:13:58;;;;;;;0.10;0.10;;;19.20;99.90;;;;;;4905344;29;20036;-82
2022/08/31 00:16:25;;;;;;;0.10;0.10;;;19.10;99.90;;;;;;4905499;29;20047;-83
2022/08/31 00:18:52;;;;;;;0.20;0.20;;;19.00;99.90;;;;;;4887949;29;20043;-84
2022/08/31 00:21:20;;;;;;;0.10;0.10;;;18.70;99.90;;;;;;4905095;29;20099;-86
2022/08/31 00:23:47;;;;;;;1.38;1.27;;;18.30;99.90;;;;;;4887206;29;20024;-78
2022/08/31 00:26:13;;;;;;;0.08;0.08;;;18.80;99.90;;;;;;4904377;29;20028;-88
2022/08/31 00:28:39;;;;;;;0.10;0.10;;;18.70;99.90;;;;;;4905236;29;20266;-91
2022/08/31 00:31:05;;;;;;;0.10;0.10;;;18.80;99.90;;;;;;4903924;29;20032;-79
2022/08/31 00:33:31;;;;;;;0.17;0.17;;;19.70;99.90;;;;;;4904669;29;20079;-85
2022/08/31 00:35:56;;;;;;;0.10;0.10;;;19.10;99.90;;;;;;4904690;29;20100;-82
2022/08/31 00:38:23;;;;;;;0.10;0.10;;;;;;;;;;4904134;29;20559;-81
2022/08/31 00:40:49;;;;;;;0.10;0.10;;;18.80;99.90;;;;;;4903757;29;20342;-81
2022/08/31 00:43:34;;;;;;;0.20;0.20;;;18.80;99.90;;;;;;4904044;29;20020;-89
2022/08/31 00:46:00;;;;;;;0.10;0.10;;;18.60;99.90;;;;;;4904615;29;20021;-83
2022/08/31 00:48:26;;;;;;;0.10;0.10;;;18.50;99.90;;;;;;4903923;29;20032;-89
2022/08/31 00:50:52;;;;;;;0.10;0.10;;;18.40;99.90;;;;;;4904054;29;20484;-83
2022/08/31 00:53:18;;;;;;;0.10;0.10;;;18.70;99.90;;;;;;4904433;29;20016;-85
2022/08/31 00:55:44;;;;;;;0.00;0.00;;;18.90;99.90;;;;;;4904645;29;20040;-83
2022/08/31 00:58:12;;;;;;;0.10;0.10;;;19.10;99.90;;;;;;4904095;29;20100;-84
2022/08/31 01:00:41;;;;;;;0.10;0.10;;;19.40;99.90;;;;;;4904213;29;20052;-85
2022/08/31 01:03:08;;;;;;;0.28;0.28;;;19.60;99.90;;;;;;4887372;29;20031;-77
2022/08/31 01:05:35;;;;;;;0.00;0.00;;;19.90;99.90;;;;;;4904691;29;20230;-85
2022/08/31 01:08:02;;;;;;;0.20;0.20;;;20.10;99.90;;;;;;4887783;29;20024;-76
2022/08/31 01:10:32;;;;;;;0.22;0.22;;;20.20;99.90;;;;;;4883365;29;20052;-88
2022/08/31 01:12:58;;;;;;;0.10;0.10;;;20.00;99.90;;;;;;4885482;29;20029;-82
2022/08/31 01:15:25;;;;;;;0.30;0.30;;;19.80;99.90;;;;;;4886464;29;20346;-88
2022/08/31 01:17:54;;;;;;;0.10;0.10;;;19.40;99.90;;;;;;4884884;29;20083;-90
2022/08/31 01:20:31;;;;;;;0.13;0.13;;;19.60;99.90;;;;;;4884983;29;20496;-80
2022/08/31 01:23:16;;;;;;;0.10;0.10;;;19.30;99.90;;;;;;4884737;29;20197;-83
2022/08/31 01:25:44;;;;;;;0.10;0.10;;;19.00;99.90;;;;;;4885305;29;20025;-82
2022/08/31 01:28:11;;;;;;;0.03;0.03;;;19.10;99.90;;;;;;4885012;29;20051;-89
2022/08/31 01:30:38;;;;;;;0.10;0.10;;;19.00;99.90;;;;;;4884999;29;20338;-80
2022/08/31 01:33:05;;;;;;;0.10;0.10;;;19.20;99.90;;;;;;4886056;29;20021;-90
2022/08/31 01:35:32;;;;;;;0.10;0.10;;;19.10;99.90;;;;;;4884940;29;20040;-86
2022/08/31 01:37:59;;;;;;;0.10;0.10;;;19.60;99.90;;;;;;4868228;29;20048;-84
2022/08/31 01:40:43;;;;;;;0.38;0.38;;;19.30;99.90;;;;;;4868169;29;20039;-79
2022/08/31 01:43:08;;;;;;;0.10;0.10;;;18.80;99.90;;;;;;4884900;29;20021;-81
2022/08/31 01:45:34;;;;;;;0.10;0.10;;;18.30;99.90;;;;;;4885163;29;20243;-85
2022/08/31 01:48:00;;;;;;;0.03;0.03;;;18.30;99.90;;;;;;4884785;29;20047;-90
2022/08/31 01:50:26;;;;;;;0.03;0.03;;;18.60;99.90;;;;;;4884488;29;20036;-85
2022/08/31 01:52:52;;;;;;;0.10;0.10;;;19.00;99.90;;;;;;4868073;29;20040;-89
2022/08/31 01:55:18;;;;;;;0.10;0.10;;;19.00;99.90;;;;;;4884398;29;20267;-82
2022/08/31 01:57:43;;;;;;;1.08;0.98;;;18.90;99.90;;;;;;4883859;29;20028;-80
2022/08/31 02:00:10;;;;;;;0.10;0.10;;;19.00;99.90;;;;;;4884317;29;20519;-86
2022/08/31 02:02:36;;;;;;;0.10;0.10;;;19.90;99.90;;;;;;4867616;29;20029;-75
2022/08/31 02:05:04;;;;;;;0.10;0.10;;;19.70;99.90;;;;;;4884149;29;20028;-79
2022/08/31 02:07:30;;;;;;;0.10;0.10;;;20.90;99.90;;;;;;4884111;29;20119;-92
2022/08/31 02:09:55;;;;;;;0.00;0.00;;;20.10;99.90;;;;;;4889447;29;20107;-87
2022/08/31 02:12:21;;;;;;;0.82;0.80;;;20.30;99.90;;;;;;4903661;29;20379;-84
2022/08/31 02:14:47;;;;;;;0.08;0.08;;;18.00;99.90;;;;;;4903036;29;20028;-78
2022/08/31 02:17:13;;;;;;;0.10;0.10;;;20.30;99.90;;;;;;4903157;29;20096;-90
2022/08/31 02:19:39;;;;;;;0.13;0.13;;;20.30;99.90;;;;;;4902590;29;20112;-92
2022/08/31 02:22:05;;;;;;;0.10;0.10;;;20.40;99.90;;;;;;4903688;29;20024;-85
2022/08/31 02:24:30;;;;;;;0.10;0.10;;;20.20;99.90;;;;;;4903072;29;20031;-87
2022/08/31 02:26:56;;;;;;;0.10;0.10;;;20.20;99.90;;;;;;4903521;29;20035;-88
2022/08/31 02:29:22;;;;;;;0.10;0.10;;;19.70;99.90;;;;;;4903403;29;20028;-87
2022/08/31 02:31:48;;;;;;;0.10;0.10;;;19.80;99.90;;;;;;4903985;29;20048;-87
2022/08/31 02:34:16;;;;;;;0.03;0.03;;;19.90;99.90;;;;;;4907732;29;20103;-90
2022/08/31 02:36:44;;;;;;;0.10;0.10;;;19.40;99.90;;;;;;4906879;29;20059;-79
2022/08/31 02:39:10;;;;;;;0.00;0.00;;;19.10;99.90;;;;;;4907764;29;20242;-85
2022/08/31 02:41:36;;;;;;;0.45;0.45;;;18.90;99.90;;;;;;4890051;29;20246;-80
2022/08/31 02:44:07;;;;;;;1.38;1.35;;;18.60;99.90;;;;;;4906008;29;20475;-85
2022/08/31 02:46:33;;;;;;;0.10;0.10;;;18.80;99.90;;;;;;4906324;29;20051;-84
2022/08/31 02:49:00;;;;;;;0.10;0.10;;;18.90;99.90;;;;;;4910303;29;20563;-80
2022/08/31 02:51:26;;;;;;;0.10;0.10;;;18.80;99.90;;;;;;4911845;29;20095;-85
2022/08/31 02:53:52;;;;;;;0.10;0.10;;;18.70;99.90;;;;;;4912987;29;20365;-88
2022/08/31 02:56:18;;;;;;;0.10;0.10;;;18.80;99.90;;;;;;4913232;29;20606;-87
2022/08/31 02:58:43;;;;;;;0.80;0.80;;;18.20;99.90;;;;;;4913621;29;20031;-87
2022/08/31 03:01:10;;;;;;;0.10;0.10;;;18.20;99.90;;;;;;4912765;29;20050;-87
2022/08/31 03:03:37;;;;;;;0.00;0.00;;;18.30;99.90;;;;;;4906763;29;20507;-86
2022/08/31 03:06:03;;;;;;;0.00;0.00;;;18.40;99.90;;;;;;4907035;29;20028;-81
2022/08/31 03:08:30;;;;;;;0.10;0.10;;;18.50;99.90;;;;;;4907402;29;20106;-87
2022/08/31 03:10:56;;;;;;;0.10;0.10;;;18.40;99.90;;;;;;4907033;29;20120;-87
2022/08/31 03:13:21;;;;;;;0.10;0.10;;;18.50;99.90;;;;;;4905919;29;20288;-86
2022/08/31 03:15:48;;;;;;;0.10;0.10;;;18.20;99.90;;;;;;4911124;29;20042;-87
2022/08/31 03:18:19;;;;;;;0.10;0.10;;;18.70;99.90;;;;;;4912872;29;20155;-85
2022/08/31 03:20:45;;;;;;;0.10;0.10;;;18.70;99.90;;;;;;4912852;29;20029;-75
2022/08/31 03:23:19;;;;;;;0.10;0.10;;;18.80;99.90;;;;;;4894034;29;20464;-82
2022/08/31 03:25:45;;;;;;;4.10;3.63;;;18.70;99.90;;;;;;4890799;29;20128;-84
2022/08/31 03:28:11;;;;;;;0.25;0.25;;;18.60;99.90;;;;;;4906655;29;20374;-93
2022/08/31 03:30:38;;;;;;;0.10;0.10;;;18.40;99.90;;;;;;4890607;29;20050;-83
2022/08/31 03:33:03;;;;;;;0.10;0.10;;;18.20;99.90;;;;;;4906769;29;20079;-83
2022/08/31 03:35:30;;;;;;;0.15;0.15;;;18.60;99.90;;;;;;4910397;29;20032;-81
2022/08/31 03:37:56;;;;;;;0.00;0.00;;;18.40;99.90;;;;;;4907595;29;20043;-79
2022/08/31 03:40:22;;;;;;;0.10;0.10;;;18.10;99.90;;;;;;4907922;29;20526;-80
2022/08/31 03:42:50;;;;;;;0.55;0.55;;;18.10;99.90;;;;;;4907398;29;20024;-89
2022/08/31 03:45:16;;;;;;;0.10;0.10;;;19.70;99.90;;;;;;4906218;29;20148;-87
2022/08/31 03:47:42;;;;;;;0.00;0.00;;;17.70;99.90;;;;;;4907000;29;20021;-91
2022/08/31 03:50:09;;;;;;;0.10;0.10;;;17.30;99.90;;;;;;4906596;29;20054;-91
2022/08/31 03:52:37;;;;;;;0.10;0.10;;;17.50;99.90;;;;;;4905416;29;20024;-92
2022/08/31 03:55:05;;;;;;;0.10;0.10;;;17.60;99.90;;;;;;4906198;29;20160;-92
2022/08/31 03:57:30;;;;;;;0.10;0.10;;;18.20;99.90;;;;;;4905937;29;20530;-92
2022/08/31 03:59:57;;;;;;;0.10;0.10;;;18.10;99.90;;;;;;4905899;29;20024;-91
2022/08/31 04:02:23;;;;;;;0.10;0.10;;;16.10;99.90;;;;;;4906932;29;20031;-90
2022/08/31 04:04:53;;;;;;;0.10;0.10;;;17.80;99.90;;;;;;4889752;29;20040;-81
2022/08/31 04:07:19;;;;;;;0.10;0.10;;;17.60;99.90;;;;;;4888117;29;20071;-81
2022/08/31 04:09:46;;;;;;;0.10;0.10;;;17.80;99.90;;;;;;4905056;29;20605;-86
2022/08/31 04:12:13;;;;;;;0.10;0.10;;;17.80;99.90;;;;;;4905040;29;20071;-82
2022/08/31 04:14:42;;;;;;;0.20;0.20;;;17.60;99.90;;;;;;4904998;29;20059;-75
2022/08/31 04:17:09;;;;;;;0.17;0.17;;;17.70;99.90;;;;;;4887274;29;20411;-76
2022/08/31 04:19:35;;;;;;;0.05;0.05;;;17.40;99.90;;;;;;4904999;29;20048;-76
2022/08/31 04:22:01;;;;;;;0.20;0.20;;;17.60;99.90;;;;;;4904504;29;20535;-92
2022/08/31 04:24:28;;;;;;;0.10;0.10;;;18.70;99.90;;;;;;4904966;29;20238;-79
2022/08/31 04:26:54;;;;;;;0.10;0.10;;;17.50;99.90;;;;;;4887051;29;20420;-79
2022/08/31 04:29:20;;;;;;;0.08;0.08;;;;;;;;;;4887625;29;20047;-75
2022/08/31 04:31:46;;;;;;;0.00;0.00;;;17.50;99.90;;;;;;4887123;29;20031;-79
2022/08/31 04:34:12;;;;;;;0.10;0.10;;;17.70;99.90;;;;;;4904478;29;20025;-78
2022/08/31 04:36:38;;;;;;;0.10;0.10;;;17.40;99.90;;;;;;4905101;29;20024;-81
2022/08/31 04:39:05;;;;;;;0.10;0.10;;;17.50;99.90;;;;;;4887466;29;20395;-89
2022/08/31 04:41:35;;;;;;;0.10;0.10;;;17.60;99.90;;;;;;4904396;29;20024;-88
2022/08/31 04:44:02;;;;;;;0.10;0.10;;;17.30;99.90;;;;;;4904571;29;20079;-89
2022/08/31 04:46:29;;;;;;;0.00;0.00;;;18.40;99.90;;;;;;4904890;29;20027;-83
2022/08/31 04:48:56;;;;;;;0.10;0.10;;;17.10;99.90;;;;;;4904648;29;20345;-80
2022/08/31 04:51:27;;;;;;;0.10;0.10;;;17.20;99.90;;;;;;4904752;29;20499;-87
2022/08/31 04:53:53;;;;;;;0.10;0.10;;;17.10;99.90;;;;;;4887245;29;20347;-93
2022/08/31 04:56:22;;;;;;;0.10;0.10;;;17.30;99.90;;;;;;4904509;29;20024;-81
2022/08/31 04:58:55;;;;;;;0.10;0.10;;;17.20;99.90;;;;;;4904756;29;20020;-89
2022/08/31 05:01:24;;;;;;;0.10;0.10;;;17.20;99.90;;;;;;4903932;29;20111;-88
2022/08/31 05:03:52;;;;;;;0.10;0.10;;;17.10;99.90;;;;;;4904388;29;20384;-77
2022/08/31 05:06:24;;;;;;;0.10;0.10;;;17.10;99.90;;;;;;4904550;29;20024;-85
2022/08/31 05:08:54;;;;;;;0.40;0.40;;;17.40;99.90;;;;;;4903777;29;20028;-81
2022/08/31 05:11:21;;;;;;;0.10;0.10;;;17.50;99.90;;;;;;4904051;29;20092;-90
2022/08/31 05:13:48;;;;;;;0.10;0.10;;;18.00;99.90;;;;;;4904383;29;20107;-80
2022/08/31 05:16:15;;;;;;;0.10;0.10;;;15.10;99.90;;;;;;4904796;29;20028;-89
2022/08/31 05:18:43;;;;;;;0.10;0.10;;;17.60;99.90;;;;;;4904360;29;20515;-84
2022/08/31 05:21:27;;;;;;;0.10;0.10;;;18.00;99.90;;;;;;4904721;29;20038;-84
2022/08/31 05:24:04;;;;;;;0.10;0.10;;;18.40;99.90;;;;;;4904074;29;20229;-89
2022/08/31 05:26:36;;;;;;;0.10;0.10;;;18.20;99.90;;;;;;4904431;29;20020;-90
2022/08/31 05:29:07;;;;;;;0.10;0.10;;;18.60;99.90;;;;;;4887363;29;20024;-86
2022/08/31 05:31:36;;;;;;;0.20;0.20;;;19.20;99.90;;;;;;4904663;29;20038;-80
2022/08/31 05:34:03;;;;;;;0.00;0.00;;;19.00;99.90;;;;;;4903329;29;20217;-83
2022/08/31 05:36:28;;;;;;;0.10;0.10;;;19.20;99.90;;;;;;4903594;29;20040;-85
2022/08/31 05:38:54;;;;;;;0.10;0.10;;;19.00;99.90;;;;;;4903114;29;20024;-81
2022/08/31 05:41:22;;;;;;;0.32;0.20;;;19.00;99.90;;;;;;4903608;29;20570;-84
2022/08/31 05:43:48;;;;;;;0.10;0.10;;;19.00;99.90;;;;;;4904165;29;20103;-80
2022/08/31 05:46:15;;;;;;;4.63;4.47;;;19.00;99.90;;;;;;4904166;29;20022;-89
2022/08/31 05:48:41;;;;;;;0.10;0.10;;;18.80;99.90;;;;;;4887010;29;20139;-88
2022/08/31 05:51:10;;;;;;;0.10;0.10;;;18.70;99.90;;;;;;4903773;29;20043;-80
2022/08/31 05:53:37;;;;;;;0.10;0.10;;;18.70;99.90;;;;;;4903528;29;20568;-92
2022/08/31 05:56:10;;;;;;;0.10;0.10;;;19.30;99.90;;;;;;4903736;29;20027;-93
2022/08/31 05:58:39;;;;;;;1.67;1.55;;;19.00;99.90;;;;;;4904616;29;20024;-94
2022/08/31 06:01:22;;;;;;;0.10;0.10;;;19.40;99.90;;;;;;4903561;29;20107;-88
2022/08/31 06:03:49;;;;;;;0.05;0.05;;;19.60;99.90;;;;;;4904042;29;20323;-86
2022/08/31 06:06:15;;;;;;;0.00;0.00;;;19.60;99.90;;;;;;4887527;29;20250;-95
2022/08/31 06:08:42;;;;;;;0.10;0.10;;;19.60;99.90;;;;;;4904204;29;20020;-94
2022/08/31 06:11:13;;;;;;;0.10;0.10;;;17.40;99.90;;;;;;4912921;29;20048;-83
2022/08/31 06:13:39;;;;;;;0.10;0.10;;;19.50;99.90;;;;;;4896909;29;20017;-88
2022/08/31 06:16:05;;;;;;;0.10;0.10;;;19.60;99.90;;;;;;4915015;29;20046;-88
2022/08/31 06:18:31;;;;;;;0.00;0.00;;;19.40;99.90;;;;;;4915783;29;20223;-85
2022/08/31 06:21:11;;;;;;;0.10;0.10;;;19.60;99.90;;;;;;4910773;29;20025;-89
2022/08/31 06:23:44;;;;;;;0.10;0.10;;;19.70;99.90;;;;;;4906985;29;20317;-82
2022/08/31 06:26:14;;;;;;;0.10;0.10;;;20.00;99.90;;;;;;4905465;29;20397;-95
2022/08/31 06:28:44;;;;;;;0.40;0.40;;;20.00;99.90;;;;;;4904194;29;20056;-92
2022/08/31 06:31:22;;;;;;;0.20;0.20;;;20.10;99.90;;;;;;4886671;29;20052;-93
2022/08/31 06:33:48;;;;;;;0.10;0.10;;;20.00;99.90;;;;;;4903374;29;20028;-94
2022/08/31 06:36:17;;;;;;;0.10;0.10;;;20.50;99.90;;;;;;4904534;29;20034;-90
2022/08/31 06:38:43;;;;;;;0.10;0.10;;;21.10;99.90;;;;;;4905469;29;20353;-80
2022/08/31 06:41:13;;;;;;;0.10;0.10;;;20.90;99.90;;;;;;4903707;29;20043;-87
2022/08/31 06:43:40;;;;;;;0.08;0.08;;;21.20;99.90;;;;;;4904333;29;20035;-90
2022/08/31 06:46:06;;;;;;;0.32;0.32;;;21.90;99.90;;;;;;4904397;29;20032;-91
2022/08/31 06:48:35;;;;;;;0.10;0.10;;;21.70;99.90;;;;;;4886191;29;20023;-91
2022/08/31 06:51:02;;;;;;;0.10;0.10;;;21.50;99.90;;;;;;4886896;29;20040;-86
2022/08/31 06:53:30;;;;;;;0.32;0.32;;;21.50;99.90;;;;;;4905208;29;20024;-85
2022/08/31 06:55:56;;;;;;;0.10;0.10;;;21.70;99.90;;;;;;4903595;29;20035;-92
2022/08/31 06:58:45;;;;;;;1.02;0.95;;;21.80;99.90;;;;;;4903330;29;20499;-82
2022/08/31 07:01:17;;;;;;;1.17;1.17;;;18.80;99.90;;;;;;4885739;29;20032;-88
2022/08/31 07:03:44;;;;;;;0.08;0.08;;;21.90;99.90;;;;;;4904522;29;20152;-89
2022/08/31 07:06:16;;;;;;;0.00;0.00;;;21.90;99.90;;;;;;4887096;29;20060;-86
2022/08/31 07:08:46;;;;;;;0.10;0.10;;;21.90;99.90;;;;;;4887900;29;20079;-88
2022/08/31 07:11:16;;;;;;;0.10;0.10;;;19.70;99.90;;;;;;4902828;29;20139;-77
2022/08/31 07:13:42;;;;;;;0.15;0.15;;;21.00;99.90;;;;;;4903302;29;20468;-85
2022/08/31 07:16:11;;;;;;;0.32;0.32;;;22.10;99.90;;;;;;4885847;29;20096;-78
2022/08/31 07:18:38;;;;;;;0.80;0.63;;;21.90;99.90;;;;;;4905184;29;20024;-77
2022/08/31 07:21:12;;;;;;;0.10;0.10;;;25.50;99.90;;;;;;4889717;29;20411;-86
2022/08/31 07:23:39;;;;;;;0.00;0.00;;;21.90;99.90;;;;;;4910216;29;20127;-80
2022/08/31 07:26:11;;;;;;;0.10;0.10;;;21.80;99.90;;;;;;4905932;29;20314;-80
2022/08/31 07:28:38;;;;;;;0.10;0.10;;;22.00;99.90;;;;;;4906734;29;20020;-80
2022/08/31 07:31:05;;;;;;;2.30;2.00;;;21.90;99.90;;;;;;4906908;29;20354;-83
2022/08/31 07:33:38;;;;;;;0.00;0.00;;;22.10;99.90;;;;;;4906587;29;20016;-92
2022/08/31 07:36:12;;;;;;;0.00;0.00;;;22.20;99.90;;;;;;4906410;29;20024;-89
2022/08/31 07:44:25;;;;;;;0.10;0.10;;;22.20;99.90;;;;;;4907364;29;20043;-81
2022/08/31 07:46:54;;;;;;;0.32;0.32;;;22.30;99.90;;;;;;4890241;29;20040;-92
2022/08/31 07:49:20;;;;;;;0.20;0.20;;;22.30;99.90;;;;;;4890333;29;20028;-80
2022/08/31 07:51:52;;;;;;;0.00;0.00;;;22.30;99.90;;;;;;4889431;29;20127;-82
2022/08/31 07:54:31;;;;;;;0.10;0.10;;;22.50;99.90;;;;;;4908801;29;20103;-74
2022/08/31 07:57:03;;;;;;;0.10;0.10;;;;;;;;;;4891533;29;20020;-79
2022/08/31 07:59:31;;;;;;;0.03;0.03;;;22.50;99.90;;;;;;4890433;29;20032;-85
2022/08/31 08:02:00;;;;;;;0.00;0.00;;;22.30;99.90;;;;;;4908483;29;20079;-79
2022/08/31 08:04:27;;;;;;;2.30;0.75;;;22.30;99.90;;;;;;4909214;29;20104;-87
2022/08/31 08:06:56;;;;;;;0.00;0.00;;;22.30;99.90;;;;;;4890609;29;20087;-82
2022/08/31 08:09:24;;;;;;;0.00;0.00;;;22.30;99.90;;;;;;4892381;29;20032;-79
2022/08/31 08:11:56;;;;;;;0.43;0.43;;;22.80;99.90;;;;;;4891101;29;20032;-84
2022/08/31 08:14:26;;;;;;;0.30;0.30;;;22.20;99.90;;;;;;4908430;29;20515;-86
2022/08/31 08:16:53;;;;;;;0.57;0.57;;;22.10;99.90;;;;;;4908317;29;20080;-92
2022/08/31 08:19:19;;;;;;;0.70;0.70;;;21.70;99.90;;;;;;4908637;29;20099;-89
2022/08/31 08:21:45;;;;;;;0.10;0.10;;;22.10;99.90;;;;;;4910394;29;20748;-84
2022/08/31 08:24:13;;;;;;;0.10;0.10;;;22.20;99.90;;;;;;4890190;29;20684;-77
2022/08/31 08:26:45;;;;;;;0.00;0.00;;;19.10;99.90;;;;;;4906475;29;20096;-81
2022/08/31 08:29:12;;;;;;;0.10;0.10;;;23.80;99.90;;;;;;4906810;29;20017;-82
2022/08/31 08:31:37;;;;;;;0.45;0.45;;;23.30;99.90;;;;;;4890052;29;20565;-88
2022/08/31 08:34:04;;;;;;;0.20;0.20;;;22.50;99.90;;;;;;4906430;29;20021;-77
2022/08/31 08:36:34;;;;;;;0.05;0.05;;;20.60;99.90;;;;;;4890187;29;20031;-84
2022/08/31 08:39:02;;;;;;;0.00;0.00;;;22.70;99.90;;;;;;4906256;29;20156;-82
2022/08/31 08:41:28;;;;;;;0.00;0.00;;;;;;;;;;4890024;29;20479;-89
2022/08/31 08:43:57;;;;;;;0.00;0.00;;;22.90;99.90;;;;;;4908479;29;20693;-93
2022/08/31 08:46:26;;;;;;;0.22;0.22;;;23.20;99.90;;;;;;4905888;29;20056;-82
2022/08/31 08:48:54;;;;;;;1.00;0.65;;;23.30;99.90;;;;;;4904457;29;20024;-82
2022/08/31 08:51:23;;;;;;;0.00;0.00;;;23.20;99.90;;;;;;4889788;29;20096;-91
2022/08/31 08:54:06;;;;;;;0.00;0.00;;;23.20;99.90;;;;;;4905973;29;20051;-81
2022/08/31 08:56:31;;;;;;;0.00;0.00;;;23.50;99.90;;;;;;4907351;29;20057;-84
2022/08/31 08:58:57;;;;;;;0.13;0.13;;;23.60;99.90;;;;;;4893703;29;20661;-78
2022/08/31 09:01:28;;;;;;;0.10;0.10;;;22.40;99.90;;;;;;4913710;29;20016;-80
2022/08/31 09:04:05;;;;;;;0.38;0.38;;;23.30;99.90;;;;;;4908176;29;20090;-82
2022/08/31 09:06:46;;;;;;;0.10;0.10;;;23.20;99.90;;;;;;4908461;29;20035;-80
2022/08/31 09:09:31;;;;;;;1.08;1.08;;;22.10;99.90;;;;;;4890696;29;20068;-88
2022/08/31 09:12:24;;;;;;;1.23;1.17;;;20.90;99.90;;;;;;4911203;29;20040;-76
2022/08/31 09:15:17;;;;;;;0.45;0.45;;;23.70;99.90;;;;;;4911034;29;20020;-82
2022/08/31 09:18:06;;;;;;;2.55;0.90;;;24.20;99.90;;;;;;4893006;29;20029;-86
2022/08/31 09:20:32;;;;;;;0.17;0.17;;;24.30;99.90;;;;;;4907052;29;20115;-87
2022/08/31 09:22:59;;;;;;;0.00;0.00;;;23.90;99.90;;;;;;4906476;29;20133;-84
2022/08/31 09:25:52;;;;;;;0.10;0.10;;;23.90;99.90;;;;;;4889338;29;20028;-83
2022/08/31 09:28:33;;;;;;;0.00;0.00;;;24.00;99.90;;;;;;4902663;29;20107;-86
2022/08/31 09:31:00;;;;;;;0.45;0.45;;;;;;;;;;4889972;29;20039;-89
2022/08/31 09:33:32;;;;;;;0.25;0.25;;;24.10;99.90;;;;;;4907130;29;20032;-82
2022/08/31 09:36:16;;;;;;;0.08;0.08;;;24.30;99.90;;;;;;4890560;29;20064;-80
2022/08/31 09:38:45;;;;;;;0.30;0.30;;;24.40;99.90;;;;;;4906980;29;20302;-84
2022/08/31 09:41:35;;;;;;;1.48;1.38;;;24.30;99.90;;;;;;4874285;29;20028;-85
2022/08/31 09:44:19;;;;;;;0.32;0.32;;;24.30;99.90;;;;;;4891933;29;20626;-91
2022/08/31 09:46:48;;;;;;;0.00;0.00;;;24.50;99.90;;;;;;4907683;29;20016;-86
2022/08/31 09:49:35;;;;;;;0.85;0.85;;;24.70;99.90;;;;;;4907231;29;20529;-90
2022/08/31 09:55:24;;;;;;;0.43;0.43;;;24.70;99.90;;;;;;4847897;29;20551;-86
2022/08/31 09:57:57;;;;;;;0.10;0.10;;;24.80;99.90;;;;;;4848389;29;20036;-95
2022/08/31 10:00:31;;;;;;;0.05;0.05;;;24.80;99.90;;;;;;4850284;29;20112;-94
2022/08/31 10:03:19;;;;;;;0.10;0.10;;;24.60;99.90;;;;;;4848720;29;20022;-95
2022/08/31 10:05:47;;;;;;;0.00;0.00;;;24.60;99.90;;;;;;4848969;29;20871;-89
2022/08/31 10:08:41;;;;;;;0.10;0.10;;;24.60;99.90;;;;;;4845884;29;20048;-86
2022/08/31 10:11:12;;;;;;;0.10;0.10;;;24.80;99.90;;;;;;4844026;29;20065;-81
2022/08/31 10:13:59;;;;;;;0.50;0.50;;;25.00;99.90;;;;;;4843080;29;20029;-81
2022/08/31 10:16:34;;;;;;;0.38;0.38;;;25.30;99.90;;;;;;4843979;29;20037;-80
2022/08/31 10:19:38;;;;;;;1.23;0.63;;;25.30;99.90;;;;;;4828505;29;20033;-82
2022/08/31 10:22:24;;;;;;;0.08;0.08;;;25.20;99.90;;;;;;4791923;29;20049;-85
2022/08/31 10:25:26;;;;;;;0.10;0.10;;;28.20;99.90;;;;;;4807006;29;20031;-81
2022/08/31 10:28:11;;;;;;;0.10;0.10;;;25.70;99.90;;;;;;4803980;29;20034;-84
2022/08/31 10:31:01;;;;;;;0.30;0.30;;;26.00;99.80;;;;;;4807886;29;20249;-87
2022/08/31 10:36:31;;;;;;;0.10;0.10;;;26.40;98.90;;;;;;4807907;29;20044;-82
2022/08/31 10:39:00;;;;;;;2.00;1.90;;;26.80;97.60;;;;;;4792743;29;20733;-89
2022/08/31 10:41:37;;;;;;;1.13;1.08;;;26.80;97.70;;;;;;4794485;29;20049;-88
2022/08/31 10:44:08;;;;;;;0.13;0.13;;;26.90;97.30;;;;;;4799107;29;20026;-88
2022/08/31 10:46:34;;;;;;;0.10;0.10;;;26.80;97.30;;;;;;4816730;29;20050;-85
2022/08/31 10:49:14;;;;;;;0.52;0.52;;;26.90;97.60;;;;;;4820481;29;20071;-85
2022/08/31 10:51:54;;;;;;;0.00;0.00;;;26.00;97.00;;;;;;4817385;29;20058;-84
2022/08/31 10:54:57;;;;;;;0.52;0.40;;;27.10;96.70;;;;;;4879386;29;20036;-78
2022/08/31 10:58:16;;;;;;;0.00;0.00;;;27.00;96.60;;;;;;4873930;29;20288;-77
2022/08/31 11:01:03;;;;;;;0.00;0.00;;;27.60;96.30;;;;;;4889466;29;20032;-89
2022/08/31 11:04:03;;;;;;;0.00;0.00;;;27.50;95.40;;;;;;4888290;29;20035;-82
2022/08/31 11:07:07;;;;;;;0.00;0.00;;;27.50;95.30;;;;;;4871467;29;20055;-82
2022/08/31 11:09:57;;;;;;;0.00;0.00;;;27.90;95.50;;;;;;4873011;29;20033;-83
2022/08/31 11:12:32;;;;;;;0.30;0.25;;;27.70;95.20;;;;;;4875513;29;20032;-81
2022/08/31 11:15:08;;;;;;;0.00;0.00;;;27.90;95.00;;;;;;4888862;29;20287;-86
2022/08/31 11:17:48;;;;;;;0.15;0.15;;;28.30;96.20;;;;;;4906965;29;20016;-89
2022/08/31 11:20:54;;;;;;;0.35;0.20;;;28.40;94.10;;;;;;4889361;29;20206;-93
2022/08/31 11:23:52;;;;;;;0.88;0.15;;;25.80;92.50;;;;;;4889745;29;20365;-80
2022/08/31 11:26:44;;;;;;;0.28;0.28;;;28.60;94.10;;;;;;4889913;29;20028;-90
2022/08/31 11:29:35;;;;;;;0.77;0.63;;;28.90;94.20;;;;;;4907182;29;20024;-90
2022/08/31 11:32:39;;;;;;;0.73;0.73;;;29.00;93.00;;;;;;4906370;29;20323;-81
2022/08/31 11:35:09;;;;;;;0.10;0.10;;;29.00;92.90;;;;;;4888786;29;20051;-84
2022/08/31 11:37:50;;;;;;;0.10;0.10;;;29.00;92.60;;;;;;4889221;29;20136;-81
2022/08/31 11:41:12;;;;;;;0.30;0.30;;;29.20;93.30;;;;;;4888997;29;20051;-81
2022/08/31 11:43:44;;;;;;;2.95;1.02;;;29.50;91.80;;;;;;4761172;30;20043;-86
2022/08/31 11:46:24;;;;;;;0.25;0.22;;;29.70;91.80;;;;;;4773183;29;20326;-78
2022/08/31 11:48:52;;;;;;;0.10;0.10;;;30.20;91.70;;;;;;4773460;29;20043;-86
2022/08/31 11:51:56;;;;;;;0.10;0.10;;;30.60;90.20;;;;;;4774771;30;20305;-83
2022/08/31 11:54:25;;;;;;;0.10;0.10;;;30.50;89.80;;;;;;4773769;29;20062;-90
2022/08/31 11:56:57;;;;;;;0.47;0.32;;;30.90;88.60;;;;;;4774382;29;20127;-79
2022/08/31 11:59:32;;;;;;;0.20;0.20;;;31.20;90.10;;;;;;4761319;30;20327;-75
2022/08/31 12:02:19;;;;;;;1.25;0.43;;;30.90;85.60;;;;;;4774754;29;20212;-86
2022/08/31 12:04:46;;;;;;;0.32;0.25;;;31.30;85.80;;;;;;4760644;29;20106;-89
2022/08/31 12:07:17;;;;;;;0.13;0.13;;;28.40;82.40;;;;;;4774397;29;20084;-84
2022/08/31 12:09:45;;;;;;;0.40;0.40;;;33.00;85.50;;;;;;4773853;29;20051;-77
2022/08/31 12:12:36;;;;;;;0.20;0.20;;;31.50;84.40;;;;;;4773092;29;20499;-75
2022/08/31 12:15:26;;;;;;;3.50;0.98;;;31.10;84.20;;;;;;4773312;29;20566;-81
2022/08/31 12:18:09;;;;;;;0.00;0.00;;;31.00;85.90;;;;;;4779410;29;20499;-80
2022/08/31 12:23:47;;;;;;;0.10;0.10;;;31.10;83.00;;;;;;4905173;29;19953;-77
2022/08/31 12:26:31;;;;;;;0.10;0.10;;;27.70;79.20;;;;;;4888898;29;20024;-82
2022/08/31 12:29:20;;;;;;;0.68;0.68;;;31.40;81.30;;;;;;4905332;29;20047;-84
2022/08/31 12:32:12;;;;;;;0.40;0.20;;;27.80;77.60;;;;;;4906052;29;20325;-80
2022/08/31 12:35:02;;;;;;;0.65;0.65;;;31.80;79.30;;;;;;4888706;29;20033;-79
2022/08/31 12:37:34;;;;;;;0.00;0.00;;;32.00;77.30;;;;;;4892849;29;20036;-90
2022/08/31 12:40:19;;;;;;;0.60;0.30;;;31.90;77.40;;;;;;4898506;29;20036;-83
2022/08/31 12:42:56;;;;;;;0.63;0.63;;;32.10;76.10;;;;;;4911122;29;20060;-83
2022/08/31 12:45:34;;;;;;;0.10;0.10;;;32.60;76.90;;;;;;4882948;29;20035;-77
2022/08/31 12:48:24;;;;;;;0.80;0.38;;;32.90;75.40;;;;;;4913642;29;20024;-77
2022/08/31 12:51:32;;;;;;;0.10;0.10;;;32.90;73.00;;;;;;4921811;29;20036;-88
2022/08/31 12:54:36;;;;;;;0.00;0.00;;;33.30;72.30;;;;;;4897297;29;20028;-75
2022/08/31 12:57:04;;;;;;;1.08;1.00;;;31.60;70.00;;;;;;4912477;29;20024;-92
2022/08/31 12:59:48;;;;;;;0.47;0.35;;;34.10;70.00;;;;;;4891433;29;20198;-85
2022/08/31 13:02:14;;;;;;;0.00;0.00;;;33.90;70.10;;;;;;4912258;29;20035;-81
2022/08/31 13:04:50;;;;;;;0.43;0.22;;;34.00;69.60;;;;;;4914908;29;20068;-76
2022/08/31 13:07:29;;;;;;;1.52;0.88;;;34.20;69.00;;;;;;4915032;29;20274;-72
2022/08/31 13:10:05;;;;;;;0.32;0.32;;;34.30;68.00;;;;;;4918318;29;20492;-85
2022/08/31 13:12:31;;;;;;;0.00;0.00;;;34.50;67.50;;;;;;4892803;29;20115;-78
2022/08/31 13:14:57;;;;;;;0.20;0.20;;;34.60;66.10;;;;;;4890930;29;20039;-75
2022/08/31 13:17:23;;;;;;;0.45;0.20;;;35.00;65.40;;;;;;4888683;29;20035;-85
2022/08/31 13:19:56;;;;;;;0.10;0.10;;;35.10;65.50;;;;;;4910373;29;20020;-84
2022/08/31 13:22:41;;;;;;;1.02;0.90;;;35.10;64.80;;;;;;4887077;29;20028;-80
2022/08/31 13:25:34;;;;;;;0.32;0.25;;;35.00;64.40;;;;;;4873230;29;20016;-82
2022/08/31 13:28:21;;;;;;;0.20;0.20;;;35.20;63.90;;;;;;4903846;29;20349;-79
2022/08/31 13:31:00;;;;;;;0.35;0.35;;;35.60;62.80;;;;;;4886146;29;20605;-84
2022/08/31 13:33:35;;;;;;;0.75;0.40;;;35.60;63.80;;;;;;4904629;29;20091;-85